sensor_id;sensor_type;location;lat;lon;timestamp;P1;durP1;ratioP1;P2;durP2;ratioP2
56242;SDS011;42155;53.096;23.226;2023-08-21T00:00:25;15.82;;;12.65;;
56242;SDS011;42155;53.096;23.226;2023-08-21T00:02:26;12.43;;;11.13;;
56242;SDS011;42155;53.096;23.226;2023-08-21T00:04:26;18.00;;;13.85;;
56242;SDS011;42155;53.096;23.226;2023-08-21T00:06:26;16.30;;;13.52;;
56242;SDS011;42155;53.096;23.226;2023-08-21T00:08:27;15.65;;;12.60;;
56242;SDS011;42155;53.096;23.226;2023-08-21T00:10:27;16.02;;;14.32;;
56242;SDS011;42155;53.096;23.226;2023-08-21T00:12:27;16.70;;;13.60;;
56242;SDS011;42155;53.096;23.226;2023-08-21T00:14:28;16.52;;;13.63;;
56242;SDS011;42155;53.096;23.226;2023-08-21T00:16:28;16.77;;;13.55;;
56242;SDS011;42155;53.096;23.226;2023-08-21T00:18:28;17.60;;;13.05;;
56242;SDS011;42155;53.096;23.226;2023-08-21T00:20:29;18.75;;;14.52;;
56242;SDS011;42155;53.096;23.226;2023-08-21T00:22:29;14.13;;;12.35;;
56242;SDS011;42155;53.096;23.226;2023-08-21T00:24:29;15.35;;;12.85;;
56242;SDS011;42155;53.096;23.226;2023-08-21T00:26:30;18.13;;;14.13;;
56242;SDS011;42155;53.096;23.226;2023-08-21T00:28:30;17.40;;;14.18;;
56242;SDS011;42155;53.096;23.226;2023-08-21T00:30:30;17.58;;;13.30;;
56242;SDS011;42155;53.096;23.226;2023-08-21T00:32:31;14.35;;;12.82;;
56242;SDS011;42155;53.096;23.226;2023-08-21T00:34:31;15.43;;;12.45;;
56242;SDS011;42155;53.096;23.226;2023-08-21T00:36:31;15.07;;;12.98;;
56242;SDS011;42155;53.096;23.226;2023-08-21T00:38:32;15.38;;;13.13;;
56242;SDS011;42155;53.096;23.226;2023-08-21T00:40:32;17.40;;;14.02;;
56242;SDS011;42155;53.096;23.226;2023-08-21T00:42:32;16.70;;;13.80;;
56242;SDS011;42155;53.096;23.226;2023-08-21T00:44:33;19.63;;;15.95;;
56242;SDS011;42155;53.096;23.226;2023-08-21T00:46:33;18.83;;;15.95;;
56242;SDS011;42155;53.096;23.226;2023-08-21T00:48:34;19.30;;;16.65;;
56242;SDS011;42155;53.096;23.226;2023-08-21T00:50:34;21.73;;;17.63;;
56242;SDS011;42155;53.096;23.226;2023-08-21T00:52:35;22.85;;;18.05;;
56242;SDS011;42155;53.096;23.226;2023-08-21T00:54:36;21.17;;;17.60;;
56242;SDS011;42155;53.096;23.226;2023-08-21T00:56:37;23.08;;;18.27;;
56242;SDS011;42155;53.096;23.226;2023-08-21T00:58:37;20.73;;;16.92;;
56242;SDS011;42155;53.096;23.226;2023-08-21T01:00:38;21.83;;;15.82;;
56242;SDS011;42155;53.096;23.226;2023-08-21T01:02:39;18.08;;;15.75;;
56242;SDS011;42155;53.096;23.226;2023-08-21T01:04:39;18.50;;;15.68;;
56242;SDS011;42155;53.096;23.226;2023-08-21T01:06:40;22.95;;;18.10;;
56242;SDS011;42155;53.096;23.226;2023-08-21T01:15:30;30.00;;;21.65;;
56242;SDS011;42155;53.096;23.226;2023-08-21T01:17:30;22.25;;;18.38;;
56242;SDS011;42155;53.096;23.226;2023-08-21T01:21:40;21.83;;;16.90;;
56242;SDS011;42155;53.096;23.226;2023-08-21T01:23:41;18.15;;;15.48;;
56242;SDS011;42155;53.096;23.226;2023-08-21T01:25:41;16.88;;;14.07;;
56242;SDS011;42155;53.096;23.226;2023-08-21T01:27:43;14.48;;;11.93;;
56242;SDS011;42155;53.096;23.226;2023-08-21T01:29:46;13.50;;;12.02;;
56242;SDS011;42155;53.096;23.226;2023-08-21T01:31:50;14.73;;;12.60;;
56242;SDS011;42155;53.096;23.226;2023-08-21T01:33:59;31.77;;;13.75;;
56242;SDS011;42155;53.096;23.226;2023-08-21T01:36:06;14.43;;;12.23;;
56242;SDS011;42155;53.096;23.226;2023-08-21T01:38:06;15.23;;;12.63;;
56242;SDS011;42155;53.096;23.226;2023-08-21T01:40:07;17.42;;;12.30;;
56242;SDS011;42155;53.096;23.226;2023-08-21T01:42:08;18.35;;;13.75;;
56242;SDS011;42155;53.096;23.226;2023-08-21T01:44:08;18.13;;;14.55;;
56242;SDS011;42155;53.096;23.226;2023-08-21T01:46:09;15.93;;;13.20;;
56242;SDS011;42155;53.096;23.226;2023-08-21T01:48:09;16.17;;;13.63;;
56242;SDS011;42155;53.096;23.226;2023-08-21T01:50:10;17.05;;;14.80;;
56242;SDS011;42155;53.096;23.226;2023-08-21T01:52:10;20.05;;;14.43;;
56242;SDS011;42155;53.096;23.226;2023-08-21T01:54:10;18.70;;;13.75;;
56242;SDS011;42155;53.096;23.226;2023-08-21T01:56:11;14.55;;;11.23;;
56242;SDS011;42155;53.096;23.226;2023-08-21T01:58:11;12.18;;;10.77;;
56242;SDS011;42155;53.096;23.226;2023-08-21T02:00:12;15.05;;;12.60;;
56242;SDS011;42155;53.096;23.226;2023-08-21T02:02:12;16.70;;;14.40;;
56242;SDS011;42155;53.096;23.226;2023-08-21T02:04:13;17.77;;;14.13;;
56242;SDS011;42155;53.096;23.226;2023-08-21T02:06:13;19.30;;;14.75;;
56242;SDS011;42155;53.096;23.226;2023-08-21T02:08:13;17.23;;;13.77;;
56242;SDS011;42155;53.096;23.226;2023-08-21T02:10:14;18.30;;;14.15;;
56242;SDS011;42155;53.096;23.226;2023-08-21T02:12:14;19.30;;;14.85;;
56242;SDS011;42155;53.096;23.226;2023-08-21T02:14:15;17.23;;;11.77;;
56242;SDS011;42155;53.096;23.226;2023-08-21T02:16:15;13.57;;;11.85;;
56242;SDS011;42155;53.096;23.226;2023-08-21T02:18:15;11.13;;;9.57;;
56242;SDS011;42155;53.096;23.226;2023-08-21T02:20:16;15.60;;;9.80;;
56242;SDS011;42155;53.096;23.226;2023-08-21T02:22:16;12.90;;;10.60;;
56242;SDS011;42155;53.096;23.226;2023-08-21T02:24:16;13.77;;;10.27;;
56242;SDS011;42155;53.096;23.226;2023-08-21T02:26:17;9.60;;;8.60;;
56242;SDS011;42155;53.096;23.226;2023-08-21T02:28:17;15.43;;;9.90;;
56242;SDS011;42155;53.096;23.226;2023-08-21T02:30:17;11.93;;;9.70;;
56242;SDS011;42155;53.096;23.226;2023-08-21T02:32:18;14.35;;;10.80;;
56242;SDS011;42155;53.096;23.226;2023-08-21T02:34:18;10.57;;;9.40;;
56242;SDS011;42155;53.096;23.226;2023-08-21T02:36:18;10.60;;;9.10;;
56242;SDS011;42155;53.096;23.226;2023-08-21T02:38:19;34.38;;;10.90;;
56242;SDS011;42155;53.096;23.226;2023-08-21T02:40:19;9.90;;;8.90;;
56242;SDS011;42155;53.096;23.226;2023-08-21T02:42:19;12.02;;;10.73;;
56242;SDS011;42155;53.096;23.226;2023-08-21T02:44:20;13.45;;;11.40;;
56242;SDS011;42155;53.096;23.226;2023-08-21T02:46:20;12.77;;;10.50;;
56242;SDS011;42155;53.096;23.226;2023-08-21T02:48:20;12.05;;;10.32;;
56242;SDS011;42155;53.096;23.226;2023-08-21T02:50:21;13.00;;;11.52;;
56242;SDS011;42155;53.096;23.226;2023-08-21T02:52:21;11.75;;;10.52;;
56242;SDS011;42155;53.096;23.226;2023-08-21T02:54:21;12.98;;;9.52;;
56242;SDS011;42155;53.096;23.226;2023-08-21T02:56:22;10.65;;;9.13;;
56242;SDS011;42155;53.096;23.226;2023-08-21T02:58:22;10.75;;;8.65;;
56242;SDS011;42155;53.096;23.226;2023-08-21T03:00:22;10.55;;;8.18;;
56242;SDS011;42155;53.096;23.226;2023-08-21T03:02:23;11.40;;;9.43;;
56242;SDS011;42155;53.096;23.226;2023-08-21T03:04:23;13.85;;;10.20;;
56242;SDS011;42155;53.096;23.226;2023-08-21T03:06:23;9.82;;;8.60;;
56242;SDS011;42155;53.096;23.226;2023-08-21T03:08:24;13.70;;;9.85;;
56242;SDS011;42155;53.096;23.226;2023-08-21T03:10:24;11.77;;;10.57;;
56242;SDS011;42155;53.096;23.226;2023-08-21T03:12:24;13.45;;;11.48;;
56242;SDS011;42155;53.096;23.226;2023-08-21T03:14:26;11.32;;;9.48;;
56242;SDS011;42155;53.096;23.226;2023-08-21T03:16:26;12.07;;;10.63;;
56242;SDS011;42155;53.096;23.226;2023-08-21T03:18:31;10.48;;;8.57;;
56242;SDS011;42155;53.096;23.226;2023-08-21T03:20:32;10.55;;;7.68;;
56242;SDS011;42155;53.096;23.226;2023-08-21T03:22:32;10.10;;;8.95;;
56242;SDS011;42155;53.096;23.226;2023-08-21T03:24:33;21.42;;;11.07;;
56242;SDS011;42155;53.096;23.226;2023-08-21T03:26:33;29.60;;;12.07;;
56242;SDS011;42155;53.096;23.226;2023-08-21T03:28:33;12.38;;;10.38;;
56242;SDS011;42155;53.096;23.226;2023-08-21T03:30:33;11.45;;;10.25;;
56242;SDS011;42155;53.096;23.226;2023-08-21T03:32:34;12.75;;;9.93;;
56242;SDS011;42155;53.096;23.226;2023-08-21T03:34:34;8.93;;;7.20;;
56242;SDS011;42155;53.096;23.226;2023-08-21T03:36:34;9.45;;;8.35;;
56242;SDS011;42155;53.096;23.226;2023-08-21T03:38:35;12.63;;;10.55;;
56242;SDS011;42155;53.096;23.226;2023-08-21T03:40:35;11.02;;;8.95;;
56242;SDS011;42155;53.096;23.226;2023-08-21T03:42:35;12.55;;;10.32;;
56242;SDS011;42155;53.096;23.226;2023-08-21T03:44:37;15.15;;;11.82;;
56242;SDS011;42155;53.096;23.226;2023-08-21T03:46:38;14.70;;;12.02;;
56242;SDS011;42155;53.096;23.226;2023-08-21T03:48:38;14.43;;;12.02;;
56242;SDS011;42155;53.096;23.226;2023-08-21T03:50:39;11.20;;;9.45;;
56242;SDS011;42155;53.096;23.226;2023-08-21T03:52:39;10.10;;;9.02;;
56242;SDS011;42155;53.096;23.226;2023-08-21T03:54:39;11.90;;;10.27;;
56242;SDS011;42155;53.096;23.226;2023-08-21T03:56:40;10.93;;;9.63;;
56242;SDS011;42155;53.096;23.226;2023-08-21T03:58:40;13.82;;;10.68;;
56242;SDS011;42155;53.096;23.226;2023-08-21T04:00:40;15.60;;;10.80;;
56242;SDS011;42155;53.096;23.226;2023-08-21T04:02:41;12.23;;;10.73;;
56242;SDS011;42155;53.096;23.226;2023-08-21T04:04:42;14.95;;;11.05;;
56242;SDS011;42155;53.096;23.226;2023-08-21T04:06:42;12.25;;;9.00;;
56242;SDS011;42155;53.096;23.226;2023-08-21T04:08:42;11.70;;;8.95;;
56242;SDS011;42155;53.096;23.226;2023-08-21T04:10:43;10.13;;;7.32;;
56242;SDS011;42155;53.096;23.226;2023-08-21T04:12:43;10.73;;;8.65;;
56242;SDS011;42155;53.096;23.226;2023-08-21T04:14:43;10.82;;;9.32;;
56242;SDS011;42155;53.096;23.226;2023-08-21T04:16:44;9.60;;;8.60;;
56242;SDS011;42155;53.096;23.226;2023-08-21T04:18:44;8.23;;;7.28;;
56242;SDS011;42155;53.096;23.226;2023-08-21T04:20:44;12.32;;;8.73;;
56242;SDS011;42155;53.096;23.226;2023-08-21T04:22:47;10.52;;;9.20;;
56242;SDS011;42155;53.096;23.226;2023-08-21T04:24:48;14.38;;;10.32;;
56242;SDS011;42155;53.096;23.226;2023-08-21T04:26:49;12.20;;;9.48;;
56242;SDS011;42155;53.096;23.226;2023-08-21T04:28:49;12.57;;;9.52;;
56242;SDS011;42155;53.096;23.226;2023-08-21T04:30:49;12.95;;;10.80;;
56242;SDS011;42155;53.096;23.226;2023-08-21T04:32:50;13.68;;;11.07;;
56242;SDS011;42155;53.096;23.226;2023-08-21T04:34:50;15.23;;;10.65;;
56242;SDS011;42155;53.096;23.226;2023-08-21T04:36:50;15.13;;;11.00;;
56242;SDS011;42155;53.096;23.226;2023-08-21T04:38:51;14.30;;;11.75;;
56242;SDS011;42155;53.096;23.226;2023-08-21T04:40:51;16.52;;;11.93;;
56242;SDS011;42155;53.096;23.226;2023-08-21T04:42:51;16.10;;;12.35;;
56242;SDS011;42155;53.096;23.226;2023-08-21T04:44:52;13.63;;;11.63;;
56242;SDS011;42155;53.096;23.226;2023-08-21T04:46:52;12.93;;;11.07;;
56242;SDS011;42155;53.096;23.226;2023-08-21T04:48:52;13.15;;;11.52;;
56242;SDS011;42155;53.096;23.226;2023-08-21T04:50:53;13.18;;;11.43;;
56242;SDS011;42155;53.096;23.226;2023-08-21T04:52:53;14.25;;;10.90;;
56242;SDS011;42155;53.096;23.226;2023-08-21T04:54:54;12.70;;;11.13;;
56242;SDS011;42155;53.096;23.226;2023-08-21T04:56:54;13.68;;;12.07;;
56242;SDS011;42155;53.096;23.226;2023-08-21T04:58:55;13.15;;;11.00;;
56242;SDS011;42155;53.096;23.226;2023-08-21T05:00:55;16.35;;;11.25;;
56242;SDS011;42155;53.096;23.226;2023-08-21T05:02:55;13.15;;;10.82;;
56242;SDS011;42155;53.096;23.226;2023-08-21T05:04:56;11.43;;;10.27;;
56242;SDS011;42155;53.096;23.226;2023-08-21T05:06:56;12.82;;;10.82;;
56242;SDS011;42155;53.096;23.226;2023-08-21T05:08:56;13.43;;;10.82;;
56242;SDS011;42155;53.096;23.226;2023-08-21T05:11:00;12.25;;;10.55;;
56242;SDS011;42155;53.096;23.226;2023-08-21T05:13:01;11.70;;;10.02;;
56242;SDS011;42155;53.096;23.226;2023-08-21T05:15:01;14.60;;;10.85;;
56242;SDS011;42155;53.096;23.226;2023-08-21T05:17:01;11.07;;;9.98;;
56242;SDS011;42155;53.096;23.226;2023-08-21T05:19:03;23.23;;;10.70;;
56242;SDS011;42155;53.096;23.226;2023-08-21T05:21:03;13.10;;;10.70;;
56242;SDS011;42155;53.096;23.226;2023-08-21T05:23:03;12.35;;;9.95;;
56242;SDS011;42155;53.096;23.226;2023-08-21T05:25:04;13.45;;;10.18;;
56242;SDS011;42155;53.096;23.226;2023-08-21T05:27:04;10.40;;;9.15;;
56242;SDS011;42155;53.096;23.226;2023-08-21T05:29:05;11.55;;;9.60;;
56242;SDS011;42155;53.096;23.226;2023-08-21T05:31:05;13.60;;;9.38;;
56242;SDS011;42155;53.096;23.226;2023-08-21T05:33:05;14.52;;;9.52;;
56242;SDS011;42155;53.096;23.226;2023-08-21T05:35:06;10.82;;;8.27;;
56242;SDS011;42155;53.096;23.226;2023-08-21T05:37:06;11.05;;;8.68;;
56242;SDS011;42155;53.096;23.226;2023-08-21T05:39:07;12.23;;;8.32;;
56242;SDS011;42155;53.096;23.226;2023-08-21T05:41:08;11.02;;;8.00;;
56242;SDS011;42155;53.096;23.226;2023-08-21T05:43:08;10.23;;;7.97;;
56242;SDS011;42155;53.096;23.226;2023-08-21T05:45:09;10.63;;;8.68;;
56242;SDS011;42155;53.096;23.226;2023-08-21T05:47:09;9.07;;;8.18;;
56242;SDS011;42155;53.096;23.226;2023-08-21T05:49:09;12.63;;;7.07;;
56242;SDS011;42155;53.096;23.226;2023-08-21T05:51:10;9.30;;;6.68;;
56242;SDS011;42155;53.096;23.226;2023-08-21T05:53:10;13.52;;;7.63;;
56242;SDS011;42155;53.096;23.226;2023-08-21T05:55:10;9.90;;;6.50;;
56242;SDS011;42155;53.096;23.226;2023-08-21T05:57:11;10.80;;;6.25;;
56242;SDS011;42155;53.096;23.226;2023-08-21T05:59:11;11.05;;;6.70;;
56242;SDS011;42155;53.096;23.226;2023-08-21T06:01:11;8.23;;;6.07;;
56242;SDS011;42155;53.096;23.226;2023-08-21T06:03:12;8.77;;;5.53;;
56242;SDS011;42155;53.096;23.226;2023-08-21T06:05:12;7.65;;;5.68;;
56242;SDS011;42155;53.096;23.226;2023-08-21T06:07:12;12.43;;;5.68;;
56242;SDS011;42155;53.096;23.226;2023-08-21T06:09:13;8.13;;;5.47;;
56242;SDS011;42155;53.096;23.226;2023-08-21T06:11:13;8.13;;;4.97;;
56242;SDS011;42155;53.096;23.226;2023-08-21T06:13:13;11.57;;;5.38;;
56242;SDS011;42155;53.096;23.226;2023-08-21T06:15:14;8.20;;;4.88;;
56242;SDS011;42155;53.096;23.226;2023-08-21T06:17:14;8.82;;;5.18;;
56242;SDS011;42155;53.096;23.226;2023-08-21T06:19:14;7.03;;;4.30;;
56242;SDS011;42155;53.096;23.226;2023-08-21T06:21:15;6.65;;;4.63;;
56242;SDS011;42155;53.096;23.226;2023-08-21T06:23:15;8.45;;;5.28;;
56242;SDS011;42155;53.096;23.226;2023-08-21T06:25:15;9.52;;;4.63;;
56242;SDS011;42155;53.096;23.226;2023-08-21T06:27:16;7.68;;;4.60;;
56242;SDS011;42155;53.096;23.226;2023-08-21T06:29:16;5.65;;;5.13;;
56242;SDS011;42155;53.096;23.226;2023-08-21T06:31:16;6.55;;;4.82;;
56242;SDS011;42155;53.096;23.226;2023-08-21T06:33:17;7.50;;;4.97;;
56242;SDS011;42155;53.096;23.226;2023-08-21T06:35:17;6.63;;;4.88;;
56242;SDS011;42155;53.096;23.226;2023-08-21T06:37:17;6.63;;;4.85;;
56242;SDS011;42155;53.096;23.226;2023-08-21T06:39:18;9.50;;;5.00;;
56242;SDS011;42155;53.096;23.226;2023-08-21T06:41:18;9.43;;;4.93;;
56242;SDS011;42155;53.096;23.226;2023-08-21T06:43:18;10.15;;;4.93;;
56242;SDS011;42155;53.096;23.226;2023-08-21T06:45:19;6.80;;;4.93;;
56242;SDS011;42155;53.096;23.226;2023-08-21T06:47:19;9.90;;;5.07;;
56242;SDS011;42155;53.096;23.226;2023-08-21T06:49:19;7.57;;;4.25;;
56242;SDS011;42155;53.096;23.226;2023-08-21T06:51:20;7.22;;;4.78;;
56242;SDS011;42155;53.096;23.226;2023-08-21T06:53:20;9.30;;;5.25;;
56242;SDS011;42155;53.096;23.226;2023-08-21T06:55:20;9.70;;;5.20;;
56242;SDS011;42155;53.096;23.226;2023-08-21T06:57:21;8.48;;;5.10;;
56242;SDS011;42155;53.096;23.226;2023-08-21T06:59:23;7.20;;;4.55;;
56242;SDS011;42155;53.096;23.226;2023-08-21T07:01:23;8.48;;;4.78;;
56242;SDS011;42155;53.096;23.226;2023-08-21T07:03:23;10.45;;;5.40;;
56242;SDS011;42155;53.096;23.226;2023-08-21T07:05:24;6.75;;;4.88;;
56242;SDS011;42155;53.096;23.226;2023-08-21T07:07:24;11.10;;;4.47;;
56242;SDS011;42155;53.096;23.226;2023-08-21T07:09:24;6.85;;;4.25;;
56242;SDS011;42155;53.096;23.226;2023-08-21T07:11:25;6.70;;;4.70;;
56242;SDS011;42155;53.096;23.226;2023-08-21T07:13:25;7.63;;;5.20;;
56242;SDS011;42155;53.096;23.226;2023-08-21T07:15:25;6.53;;;4.80;;
56242;SDS011;42155;53.096;23.226;2023-08-21T07:17:26;9.68;;;4.85;;
56242;SDS011;42155;53.096;23.226;2023-08-21T07:19:26;10.63;;;5.28;;
56242;SDS011;42155;53.096;23.226;2023-08-21T07:21:26;13.27;;;5.25;;
56242;SDS011;42155;53.096;23.226;2023-08-21T07:23:27;9.48;;;4.90;;
56242;SDS011;42155;53.096;23.226;2023-08-21T07:25:27;10.50;;;5.25;;
56242;SDS011;42155;53.096;23.226;2023-08-21T07:27:27;10.73;;;4.95;;
56242;SDS011;42155;53.096;23.226;2023-08-21T07:29:28;10.50;;;5.60;;
56242;SDS011;42155;53.096;23.226;2023-08-21T07:31:29;8.13;;;5.65;;
56242;SDS011;42155;53.096;23.226;2023-08-21T07:33:30;8.05;;;5.45;;
56242;SDS011;42155;53.096;23.226;2023-08-21T07:35:31;9.90;;;5.40;;
56242;SDS011;42155;53.096;23.226;2023-08-21T07:37:32;14.30;;;5.80;;
56242;SDS011;42155;53.096;23.226;2023-08-21T07:39:32;9.20;;;5.35;;
56242;SDS011;42155;53.096;23.226;2023-08-21T07:41:33;11.45;;;5.75;;
56242;SDS011;42155;53.096;23.226;2023-08-21T07:43:33;12.02;;;6.50;;
56242;SDS011;42155;53.096;23.226;2023-08-21T07:45:36;11.00;;;6.28;;
56242;SDS011;42155;53.096;23.226;2023-08-21T07:47:37;10.40;;;5.93;;
56242;SDS011;42155;53.096;23.226;2023-08-21T07:49:37;8.85;;;5.72;;
56242;SDS011;42155;53.096;23.226;2023-08-21T07:51:37;8.93;;;6.03;;
56242;SDS011;42155;53.096;23.226;2023-08-21T07:53:38;8.13;;;5.60;;
56242;SDS011;42155;53.096;23.226;2023-08-21T07:55:38;10.10;;;5.53;;
56242;SDS011;42155;53.096;23.226;2023-08-21T07:57:39;10.57;;;5.18;;
56242;SDS011;42155;53.096;23.226;2023-08-21T07:59:39;11.98;;;6.10;;
56242;SDS011;42155;53.096;23.226;2023-08-21T08:01:40;7.85;;;5.80;;
56242;SDS011;42155;53.096;23.226;2023-08-21T08:03:40;6.75;;;5.13;;
56242;SDS011;42155;53.096;23.226;2023-08-21T08:05:41;9.13;;;5.20;;
56242;SDS011;42155;53.096;23.226;2023-08-21T08:07:41;9.15;;;4.90;;
56242;SDS011;42155;53.096;23.226;2023-08-21T08:09:41;7.50;;;4.43;;
56242;SDS011;42155;53.096;23.226;2023-08-21T08:11:42;7.80;;;5.07;;
56242;SDS011;42155;53.096;23.226;2023-08-21T08:13:42;7.38;;;5.00;;
56242;SDS011;42155;53.096;23.226;2023-08-21T08:15:42;13.73;;;5.30;;
56242;SDS011;42155;53.096;23.226;2023-08-21T08:17:43;7.65;;;5.00;;
56242;SDS011;42155;53.096;23.226;2023-08-21T08:19:43;10.00;;;5.47;;
56242;SDS011;42155;53.096;23.226;2023-08-21T08:21:45;9.00;;;5.60;;
56242;SDS011;42155;53.096;23.226;2023-08-21T08:23:46;7.65;;;5.22;;
56242;SDS011;42155;53.096;23.226;2023-08-21T08:25:46;8.15;;;5.30;;
56242;SDS011;42155;53.096;23.226;2023-08-21T08:27:47;7.75;;;5.28;;
56242;SDS011;42155;53.096;23.226;2023-08-21T08:29:47;11.40;;;5.55;;
56242;SDS011;42155;53.096;23.226;2023-08-21T08:31:47;10.85;;;5.20;;
56242;SDS011;42155;53.096;23.226;2023-08-21T08:33:48;8.32;;;5.57;;
56242;SDS011;42155;53.096;23.226;2023-08-21T08:35:48;6.30;;;5.68;;
56242;SDS011;42155;53.096;23.226;2023-08-21T08:37:48;7.82;;;5.43;;
56242;SDS011;42155;53.096;23.226;2023-08-21T08:39:49;9.70;;;5.97;;
56242;SDS011;42155;53.096;23.226;2023-08-21T08:41:59;9.40;;;6.47;;
56242;SDS011;42155;53.096;23.226;2023-08-21T08:44:03;9.52;;;6.72;;
56242;SDS011;42155;53.096;23.226;2023-08-21T08:46:04;10.80;;;7.40;;
56242;SDS011;42155;53.096;23.226;2023-08-21T08:48:07;11.18;;;7.45;;
56242;SDS011;42155;53.096;23.226;2023-08-21T08:50:07;10.57;;;7.07;;
56242;SDS011;42155;53.096;23.226;2023-08-21T08:52:09;15.45;;;7.78;;
56242;SDS011;42155;53.096;23.226;2023-08-21T08:54:10;10.90;;;7.00;;
56242;SDS011;42155;53.096;23.226;2023-08-21T08:56:12;10.23;;;6.80;;
56242;SDS011;42155;53.096;23.226;2023-08-21T08:58:12;13.93;;;7.10;;
56242;SDS011;42155;53.096;23.226;2023-08-21T09:00:13;7.93;;;6.80;;
56242;SDS011;42155;53.096;23.226;2023-08-21T09:02:14;10.10;;;6.75;;
56242;SDS011;42155;53.096;23.226;2023-08-21T09:04:16;10.77;;;6.97;;
56242;SDS011;42155;53.096;23.226;2023-08-21T09:06:16;12.93;;;6.82;;
56242;SDS011;42155;53.096;23.226;2023-08-21T09:08:16;11.00;;;6.80;;
56242;SDS011;42155;53.096;23.226;2023-08-21T09:10:17;10.52;;;6.88;;
56242;SDS011;42155;53.096;23.226;2023-08-21T09:12:17;9.52;;;7.38;;
56242;SDS011;42155;53.096;23.226;2023-08-21T09:14:25;12.93;;;6.93;;
56242;SDS011;42155;53.096;23.226;2023-08-21T09:16:26;7.90;;;6.78;;
56242;SDS011;42155;53.096;23.226;2023-08-21T09:18:27;8.52;;;6.45;;
56242;SDS011;42155;53.096;23.226;2023-08-21T09:20:27;7.35;;;6.10;;
56242;SDS011;42155;53.096;23.226;2023-08-21T09:22:27;12.38;;;7.28;;
56242;SDS011;42155;53.096;23.226;2023-08-21T09:24:28;11.20;;;7.57;;
56242;SDS011;42155;53.096;23.226;2023-08-21T09:26:30;11.18;;;8.35;;
56242;SDS011;42155;53.096;23.226;2023-08-21T09:28:31;12.25;;;7.88;;
56242;SDS011;42155;53.096;23.226;2023-08-21T09:30:44;10.65;;;8.43;;
56242;SDS011;42155;53.096;23.226;2023-08-21T09:32:53;10.90;;;8.25;;
56242;SDS011;42155;53.096;23.226;2023-08-21T09:34:54;11.32;;;8.63;;
56242;SDS011;42155;53.096;23.226;2023-08-21T09:36:55;11.48;;;8.32;;
56242;SDS011;42155;53.096;23.226;2023-08-21T09:38:55;9.23;;;7.68;;
56242;SDS011;42155;53.096;23.226;2023-08-21T09:40:55;9.52;;;8.20;;
56242;SDS011;42155;53.096;23.226;2023-08-21T09:42:56;10.52;;;8.00;;
56242;SDS011;42155;53.096;23.226;2023-08-21T09:44:56;10.88;;;8.90;;
56242;SDS011;42155;53.096;23.226;2023-08-21T09:46:57;13.75;;;10.05;;
56242;SDS011;42155;53.096;23.226;2023-08-21T09:48:57;14.45;;;10.82;;
56242;SDS011;42155;53.096;23.226;2023-08-21T09:50:58;14.15;;;10.70;;
56242;SDS011;42155;53.096;23.226;2023-08-21T09:52:58;19.02;;;10.88;;
56242;SDS011;42155;53.096;23.226;2023-08-21T09:54:59;12.38;;;10.38;;
56242;SDS011;42155;53.096;23.226;2023-08-21T09:57:01;14.50;;;10.32;;
56242;SDS011;42155;53.096;23.226;2023-08-21T09:59:03;15.20;;;10.82;;
56242;SDS011;42155;53.096;23.226;2023-08-21T10:01:07;13.77;;;12.30;;
56242;SDS011;42155;53.096;23.226;2023-08-21T10:03:08;18.38;;;11.40;;
56242;SDS011;42155;53.096;23.226;2023-08-21T10:05:09;16.02;;;11.98;;
56242;SDS011;42155;53.096;23.226;2023-08-21T10:07:10;15.27;;;11.20;;
56242;SDS011;42155;53.096;23.226;2023-08-21T10:09:12;16.95;;;11.50;;
56242;SDS011;42155;53.096;23.226;2023-08-21T10:11:14;16.38;;;12.18;;
56242;SDS011;42155;53.096;23.226;2023-08-21T10:13:19;16.30;;;12.02;;
56242;SDS011;42155;53.096;23.226;2023-08-21T10:15:20;13.07;;;10.88;;
56242;SDS011;42155;53.096;23.226;2023-08-21T10:17:20;14.65;;;10.15;;
56242;SDS011;42155;53.096;23.226;2023-08-21T10:19:21;17.33;;;11.95;;
56242;SDS011;42155;53.096;23.226;2023-08-21T10:21:22;16.42;;;12.02;;
56242;SDS011;42155;53.096;23.226;2023-08-21T10:23:23;15.50;;;12.20;;
56242;SDS011;42155;53.096;23.226;2023-08-21T10:25:28;14.20;;;11.82;;
56242;SDS011;42155;53.096;23.226;2023-08-21T10:27:29;12.73;;;10.88;;
56242;SDS011;42155;53.096;23.226;2023-08-21T10:29:29;14.82;;;12.43;;
56242;SDS011;42155;53.096;23.226;2023-08-21T10:31:31;15.02;;;12.43;;
56242;SDS011;42155;53.096;23.226;2023-08-21T10:34:06;19.98;;;13.07;;
56242;SDS011;42155;53.096;23.226;2023-08-21T10:36:00;17.70;;;13.90;;
56242;SDS011;42155;53.096;23.226;2023-08-21T10:40:21;17.48;;;12.65;;
56242;SDS011;42155;53.096;23.226;2023-08-21T10:42:38;15.50;;;12.95;;
56242;SDS011;42155;53.096;23.226;2023-08-21T10:46:49;18.40;;;13.45;;
56242;SDS011;42155;53.096;23.226;2023-08-21T10:48:50;16.45;;;12.40;;
56242;SDS011;42155;53.096;23.226;2023-08-21T10:50:50;16.92;;;13.80;;
56242;SDS011;42155;53.096;23.226;2023-08-21T10:52:52;15.70;;;12.85;;
56242;SDS011;42155;53.096;23.226;2023-08-21T10:54:54;16.45;;;11.70;;
56242;SDS011;42155;53.096;23.226;2023-08-21T10:56:55;15.18;;;11.45;;
56242;SDS011;42155;53.096;23.226;2023-08-21T10:58:56;14.32;;;11.45;;
56242;SDS011;42155;53.096;23.226;2023-08-21T11:00:57;17.02;;;11.23;;
56242;SDS011;42155;53.096;23.226;2023-08-21T11:02:57;12.95;;;11.50;;
56242;SDS011;42155;53.096;23.226;2023-08-21T11:04:58;13.77;;;11.05;;
56242;SDS011;42155;53.096;23.226;2023-08-21T11:06:59;12.45;;;9.85;;
56242;SDS011;42155;53.096;23.226;2023-08-21T11:08:59;11.70;;;9.65;;
56242;SDS011;42155;53.096;23.226;2023-08-21T11:11:03;10.77;;;8.75;;
56242;SDS011;42155;53.096;23.226;2023-08-21T11:13:06;10.73;;;9.02;;
56242;SDS011;42155;53.096;23.226;2023-08-21T11:15:07;11.85;;;9.00;;
56242;SDS011;42155;53.096;23.226;2023-08-21T11:17:08;14.52;;;8.73;;
56242;SDS011;42155;53.096;23.226;2023-08-21T11:19:08;10.25;;;8.10;;
56242;SDS011;42155;53.096;23.226;2023-08-21T11:21:10;12.52;;;8.30;;
56242;SDS011;42155;53.096;23.226;2023-08-21T11:23:11;9.48;;;8.25;;
56242;SDS011;42155;53.096;23.226;2023-08-21T11:25:11;9.55;;;7.93;;
56242;SDS011;42155;53.096;23.226;2023-08-21T11:27:15;9.50;;;8.05;;
56242;SDS011;42155;53.096;23.226;2023-08-21T11:29:16;11.43;;;8.38;;
56242;SDS011;42155;53.096;23.226;2023-08-21T11:31:17;10.82;;;7.60;;
56242;SDS011;42155;53.096;23.226;2023-08-21T11:33:17;11.73;;;8.05;;
56242;SDS011;42155;53.096;23.226;2023-08-21T11:35:18;11.63;;;8.63;;
56242;SDS011;42155;53.096;23.226;2023-08-21T11:37:19;11.35;;;8.10;;
56242;SDS011;42155;53.096;23.226;2023-08-21T11:39:21;11.05;;;8.10;;
56242;SDS011;42155;53.096;23.226;2023-08-21T11:41:21;9.63;;;7.63;;
56242;SDS011;42155;53.096;23.226;2023-08-21T11:43:22;10.80;;;8.30;;
56242;SDS011;42155;53.096;23.226;2023-08-21T11:45:23;11.05;;;8.02;;
56242;SDS011;42155;53.096;23.226;2023-08-21T11:47:23;8.98;;;7.95;;
56242;SDS011;42155;53.096;23.226;2023-08-21T11:49:23;12.35;;;7.57;;
56242;SDS011;42155;53.096;23.226;2023-08-21T11:51:24;11.32;;;8.23;;
56242;SDS011;42155;53.096;23.226;2023-08-21T11:53:37;11.35;;;8.68;;
56242;SDS011;42155;53.096;23.226;2023-08-21T11:55:39;9.35;;;7.43;;
56242;SDS011;42155;53.096;23.226;2023-08-21T11:57:49;11.30;;;8.32;;